Allyn, Washington
Current Conditions -  °F | °C
As of 2:15 PM on Monday 26 Jan 2015 (Local Time) from KPWT Reporting Station
Clear Clear  
Wind Chill: 16°   Ceiling: Unl
Heat Index: 16°   Visibility: 10mi
Dew Point: 10°   Wind: 10mph
Humidity: 68%   Direction: 180°S
Pressure: 29.93"   Gusts: NA
Location:  47.39°N, 122.83°W
Report Text: KPWT 262215Z AUTO 18009KT 10SM CLR 16/10 A2993 RMK AO1
Loading
Personal Weather Stations






























Interactive Weather Map New forecast layout! Learn more

10-Day Weather Forecast

Advertisements
Track Severe Weather on mobile